sensor_id;sensor_type;location;lat;lon;timestamp;pressure;altitude;pressure_sealevel;temperature;humidity
31225;BME280;17847;31.524;74.366;2023-07-29T00:00:34;97324.88;;;28.41;100.00
31225;BME280;17847;31.524;74.366;2023-07-29T00:03:04;97335.06;;;28.44;100.00
31225;BME280;17847;31.524;74.366;2023-07-29T00:05:33;97333.25;;;28.48;100.00
31225;BME280;17847;31.524;74.366;2023-07-29T00:08:03;97337.09;;;28.47;100.00
31225;BME280;17847;31.524;74.366;2023-07-29T00:10:35;97340.84;;;28.42;100.00
31225;BME280;17847;31.524;74.366;2023-07-29T00:13:05;97345.63;;;28.45;100.00
31225;BME280;17847;31.524;74.366;2023-07-29T00:15:35;97348.34;;;28.45;100.00
31225;BME280;17847;31.524;74.366;2023-07-29T00:18:04;97355.03;;;28.48;100.00
31225;BME280;17847;31.524;74.366;2023-07-29T00:20:34;97365.94;;;28.48;100.00
31225;BME280;17847;31.524;74.366;2023-07-29T00:23:03;97366.94;;;28.43;100.00
31225;BME280;17847;31.524;74.366;2023-07-29T00:25:32;97361.50;;;28.43;100.00
31225;BME280;17847;31.524;74.366;2023-07-29T00:28:01;97361.59;;;28.47;100.00
31225;BME280;17847;31.524;74.366;2023-07-29T00:30:31;97364.69;;;28.45;100.00
31225;BME280;17847;31.524;74.366;2023-07-29T00:33:00;97367.53;;;28.49;100.00
31225;BME280;17847;31.524;74.366;2023-07-29T00:35:29;97372.06;;;28.45;100.00
31225;BME280;17847;31.524;74.366;2023-07-29T00:38:00;97377.75;;;28.40;100.00
31225;BME280;17847;31.524;74.366;2023-07-29T00:40:29;97383.19;;;28.40;100.00
31225;BME280;17847;31.524;74.366;2023-07-29T00:43:00;97390.66;;;28.43;100.00
31225;BME280;17847;31.524;74.366;2023-07-29T00:45:30;97396.69;;;28.48;100.00
31225;BME280;17847;31.524;74.366;2023-07-29T00:48:02;97394.66;;;28.45;100.00
31225;BME280;17847;31.524;74.366;2023-07-29T00:50:33;97396.69;;;28.48;100.00
31225;BME280;17847;31.524;74.366;2023-07-29T00:53:03;97404.50;;;28.38;100.00
31225;BME280;17847;31.524;74.366;2023-07-29T00:55:32;97407.34;;;28.41;100.00
31225;BME280;17847;31.524;74.366;2023-07-29T00:58:02;97404.63;;;28.41;100.00
31225;BME280;17847;31.524;74.366;2023-07-29T01:00:32;97407.59;;;28.48;100.00
31225;BME280;17847;31.524;74.366;2023-07-29T01:03:03;97407.69;;;28.52;100.00
31225;BME280;17847;31.524;74.366;2023-07-29T01:05:48;97413.63;;;28.54;100.00
31225;BME280;17847;31.524;74.366;2023-07-29T01:08:33;97414.41;;;28.54;100.00
31225;BME280;17847;31.524;74.366;2023-07-29T01:11:20;97412.59;;;28.58;100.00
31225;BME280;17847;31.524;74.366;2023-07-29T01:17:08;97424.72;;;28.61;100.00
31225;BME280;17847;31.524;74.366;2023-07-29T01:22:36;97436.44;;;28.62;100.00
31225;BME280;17847;31.524;74.366;2023-07-29T01:25:06;97457.09;;;28.63;100.00
31225;BME280;17847;31.524;74.366;2023-07-29T01:27:35;97459.75;;;28.14;100.00
31225;BME280;17847;31.524;74.366;2023-07-29T01:30:05;97470.06;;;27.88;100.00
31225;BME280;17847;31.524;74.366;2023-07-29T01:38:35;97458.41;;;26.96;100.00
31225;BME280;17847;31.524;74.366;2023-07-29T01:41:08;97469.91;;;27.01;100.00
31225;BME280;17847;31.524;74.366;2023-07-29T01:43:38;97465.19;;;26.90;100.00
31225;BME280;17847;31.524;74.366;2023-07-29T01:46:15;97474.41;;;26.97;100.00
31225;BME280;17847;31.524;74.366;2023-07-29T01:48:47;97481.44;;;26.60;100.00
31225;BME280;17847;31.524;74.366;2023-07-29T01:51:17;97484.34;;;26.55;100.00
31225;BME280;17847;31.524;74.366;2023-07-29T01:53:46;97481.47;;;26.52;100.00
31225;BME280;17847;31.524;74.366;2023-07-29T01:56:16;97467.34;;;26.67;100.00
31225;BME280;17847;31.524;74.366;2023-07-29T01:58:52;97452.25;;;26.49;100.00
31225;BME280;17847;31.524;74.366;2023-07-29T02:01:22;97444.09;;;26.49;100.00
31225;BME280;17847;31.524;74.366;2023-07-29T02:03:52;97454.78;;;26.54;100.00
31225;BME280;17847;31.524;74.366;2023-07-29T02:06:24;97477.00;;;26.47;100.00
31225;BME280;17847;31.524;74.366;2023-07-29T02:08:55;97512.19;;;26.35;100.00
31225;BME280;17847;31.524;74.366;2023-07-29T02:11:25;97509.63;;;26.38;100.00
31225;BME280;17847;31.524;74.366;2023-07-29T02:13:57;97490.63;;;26.38;100.00
31225;BME280;17847;31.524;74.366;2023-07-29T02:16:27;97475.75;;;26.45;100.00
31225;BME280;17847;31.524;74.366;2023-07-29T02:18:57;97482.88;;;26.58;100.00
31225;BME280;17847;31.524;74.366;2023-07-29T02:21:26;97495.13;;;26.72;100.00
31225;BME280;17847;31.524;74.366;2023-07-29T02:23:56;97511.72;;;26.79;100.00
31225;BME280;17847;31.524;74.366;2023-07-29T02:26:25;97517.44;;;26.87;100.00
31225;BME280;17847;31.524;74.366;2023-07-29T02:28:55;97513.97;;;26.86;100.00
31225;BME280;17847;31.524;74.366;2023-07-29T02:31:25;97519.63;;;27.02;100.00
31225;BME280;17847;31.524;74.366;2023-07-29T02:33:54;97521.16;;;27.41;100.00
31225;BME280;17847;31.524;74.366;2023-07-29T02:36:25;97515.53;;;27.66;100.00
31225;BME280;17847;31.524;74.366;2023-07-29T02:38:54;97503.78;;;27.95;100.00
31225;BME280;17847;31.524;74.366;2023-07-29T02:41:23;97519.00;;;27.96;100.00
31225;BME280;17847;31.524;74.366;2023-07-29T02:43:52;97513.63;;;27.88;100.00
31225;BME280;17847;31.524;74.366;2023-07-29T02:46:22;97533.19;;;27.81;100.00
31225;BME280;17847;31.524;74.366;2023-07-29T02:48:52;97549.72;;;27.76;100.00
31225;BME280;17847;31.524;74.366;2023-07-29T02:51:21;97555.41;;;27.62;100.00
31225;BME280;17847;31.524;74.366;2023-07-29T02:53:50;97556.22;;;27.63;100.00
31225;BME280;17847;31.524;74.366;2023-07-29T02:56:20;97554.84;;;27.78;100.00
31225;BME280;17847;31.524;74.366;2023-07-29T02:58:49;97563.13;;;27.60;100.00
31225;BME280;17847;31.524;74.366;2023-07-29T03:01:20;97558.75;;;27.68;100.00
31225;BME280;17847;31.524;74.366;2023-07-29T03:03:49;97551.84;;;27.70;100.00
31225;BME280;17847;31.524;74.366;2023-07-29T03:06:19;97569.13;;;27.75;100.00
31225;BME280;17847;31.524;74.366;2023-07-29T03:08:48;97581.50;;;27.63;100.00
31225;BME280;17847;31.524;74.366;2023-07-29T03:11:18;97584.53;;;27.33;100.00
31225;BME280;17847;31.524;74.366;2023-07-29T03:13:47;97592.53;;;27.38;100.00
31225;BME280;17847;31.524;74.366;2023-07-29T03:16:17;97598.06;;;27.20;100.00
31225;BME280;17847;31.524;74.366;2023-07-29T03:18:52;97608.88;;;26.91;100.00
31225;BME280;17847;31.524;74.366;2023-07-29T03:21:23;97629.81;;;26.73;100.00
31225;BME280;17847;31.524;74.366;2023-07-29T03:23:52;97627.31;;;26.51;100.00
31225;BME280;17847;31.524;74.366;2023-07-29T03:26:21;97623.66;;;26.30;100.00
31225;BME280;17847;31.524;74.366;2023-07-29T03:28:50;97617.25;;;26.09;100.00
31225;BME280;17847;31.524;74.366;2023-07-29T03:31:20;97614.06;;;25.89;100.00
31225;BME280;17847;31.524;74.366;2023-07-29T03:33:49;97605.91;;;25.72;100.00
31225;BME280;17847;31.524;74.366;2023-07-29T03:36:18;97616.72;;;25.55;100.00
31225;BME280;17847;31.524;74.366;2023-07-29T03:38:49;97627.78;;;25.28;100.00
31225;BME280;17847;31.524;74.366;2023-07-29T03:41:18;97639.56;;;25.23;100.00
31225;BME280;17847;31.524;74.366;2023-07-29T03:43:48;97652.00;;;25.24;100.00
31225;BME280;17847;31.524;74.366;2023-07-29T03:46:18;97653.25;;;25.18;100.00
31225;BME280;17847;31.524;74.366;2023-07-29T03:48:50;97648.13;;;25.08;100.00
31225;BME280;17847;31.524;74.366;2023-07-29T03:51:20;97663.41;;;25.04;100.00
31225;BME280;17847;31.524;74.366;2023-07-29T03:53:57;97693.38;;;24.85;100.00
31225;BME280;17847;31.524;74.366;2023-07-29T03:56:26;97699.41;;;24.82;100.00
31225;BME280;17847;31.524;74.366;2023-07-29T03:59:03;97710.97;;;24.74;100.00
31225;BME280;17847;31.524;74.366;2023-07-29T04:01:34;97731.72;;;24.56;100.00
31225;BME280;17847;31.524;74.366;2023-07-29T04:04:04;97734.66;;;24.46;100.00
31225;BME280;17847;31.524;74.366;2023-07-29T04:06:33;97734.53;;;24.29;100.00
31225;BME280;17847;31.524;74.366;2023-07-29T04:09:04;97730.03;;;24.25;100.00
31225;BME280;17847;31.524;74.366;2023-07-29T04:11:33;97717.88;;;24.22;100.00
31225;BME280;17847;31.524;74.366;2023-07-29T04:14:03;97713.47;;;24.12;100.00
31225;BME280;17847;31.524;74.366;2023-07-29T04:16:32;97706.88;;;24.19;100.00
31225;BME280;17847;31.524;74.366;2023-07-29T04:19:04;97696.44;;;24.12;100.00
31225;BME280;17847;31.524;74.366;2023-07-29T04:21:34;97689.63;;;24.14;100.00
31225;BME280;17847;31.524;74.366;2023-07-29T04:24:03;97689.22;;;24.21;100.00
31225;BME280;17847;31.524;74.366;2023-07-29T04:26:33;97680.69;;;24.28;100.00
31225;BME280;17847;31.524;74.366;2023-07-29T04:29:02;97691.47;;;24.41;100.00
31225;BME280;17847;31.524;74.366;2023-07-29T04:31:32;97681.88;;;24.35;100.00
31225;BME280;17847;31.524;74.366;2023-07-29T04:34:01;97666.34;;;24.27;100.00
31225;BME280;17847;31.524;74.366;2023-07-29T04:36:32;97653.28;;;24.43;100.00
31225;BME280;17847;31.524;74.366;2023-07-29T04:39:02;97648.69;;;24.52;100.00
31225;BME280;17847;31.524;74.366;2023-07-29T04:41:32;97652.47;;;24.65;100.00
31225;BME280;17847;31.524;74.366;2023-07-29T04:44:01;97667.00;;;24.69;100.00
31225;BME280;17847;31.524;74.366;2023-07-29T04:46:33;97686.25;;;24.67;100.00
31225;BME280;17847;31.524;74.366;2023-07-29T04:49:03;97698.75;;;24.54;100.00
31225;BME280;17847;31.524;74.366;2023-07-29T04:51:32;97706.94;;;24.63;100.00
31225;BME280;17847;31.524;74.366;2023-07-29T04:54:05;97715.91;;;24.72;100.00
31225;BME280;17847;31.524;74.366;2023-07-29T04:56:34;97704.09;;;24.68;100.00
31225;BME280;17847;31.524;74.366;2023-07-29T04:59:04;97699.22;;;24.56;100.00
31225;BME280;17847;31.524;74.366;2023-07-29T05:01:34;97704.50;;;24.61;100.00
31225;BME280;17847;31.524;74.366;2023-07-29T05:04:05;97708.88;;;24.71;100.00
31225;BME280;17847;31.524;74.366;2023-07-29T05:06:34;97725.19;;;24.80;100.00
31225;BME280;17847;31.524;74.366;2023-07-29T05:09:16;97734.63;;;24.82;100.00
31225;BME280;17847;31.524;74.366;2023-07-29T05:11:46;97735.31;;;24.88;100.00
31225;BME280;17847;31.524;74.366;2023-07-29T05:14:17;97732.13;;;24.86;100.00
31225;BME280;17847;31.524;74.366;2023-07-29T05:16:46;97726.09;;;24.89;100.00
31225;BME280;17847;31.524;74.366;2023-07-29T05:19:16;97704.13;;;24.90;100.00
31225;BME280;17847;31.524;74.366;2023-07-29T05:21:46;97680.84;;;24.89;100.00
31225;BME280;17847;31.524;74.366;2023-07-29T05:24:16;97676.91;;;24.95;100.00
31225;BME280;17847;31.524;74.366;2023-07-29T05:26:45;97662.69;;;24.90;100.00
31225;BME280;17847;31.524;74.366;2023-07-29T05:29:14;97656.03;;;24.96;100.00
31225;BME280;17847;31.524;74.366;2023-07-29T05:31:44;97643.41;;;24.91;100.00
31225;BME280;17847;31.524;74.366;2023-07-29T05:34:13;97625.88;;;24.67;100.00
31225;BME280;17847;31.524;74.366;2023-07-29T05:36:43;97614.63;;;24.73;100.00
31225;BME280;17847;31.524;74.366;2023-07-29T05:39:13;97636.75;;;24.75;100.00
31225;BME280;17847;31.524;74.366;2023-07-29T05:41:42;97644.06;;;24.75;100.00
31225;BME280;17847;31.524;74.366;2023-07-29T05:44:12;97632.94;;;24.76;100.00
31225;BME280;17847;31.524;74.366;2023-07-29T05:46:42;97634.84;;;24.76;100.00
31225;BME280;17847;31.524;74.366;2023-07-29T05:49:12;97628.75;;;24.92;100.00
31225;BME280;17847;31.524;74.366;2023-07-29T05:51:42;97615.47;;;24.82;100.00
31225;BME280;17847;31.524;74.366;2023-07-29T05:54:11;97608.88;;;24.75;100.00
31225;BME280;17847;31.524;74.366;2023-07-29T05:56:40;97600.13;;;25.00;100.00
31225;BME280;17847;31.524;74.366;2023-07-29T05:59:10;97582.59;;;25.06;100.00
31225;BME280;17847;31.524;74.366;2023-07-29T06:01:40;97569.88;;;25.15;100.00
31225;BME280;17847;31.524;74.366;2023-07-29T06:04:09;97575.63;;;25.14;100.00
31225;BME280;17847;31.524;74.366;2023-07-29T06:06:39;97576.06;;;25.07;100.00
31225;BME280;17847;31.524;74.366;2023-07-29T06:09:08;97577.19;;;25.15;100.00
31225;BME280;17847;31.524;74.366;2023-07-29T06:11:37;97565.88;;;25.13;100.00
31225;BME280;17847;31.524;74.366;2023-07-29T06:14:07;97550.09;;;25.15;100.00
31225;BME280;17847;31.524;74.366;2023-07-29T06:16:36;97539.91;;;25.20;100.00
31225;BME280;17847;31.524;74.366;2023-07-29T06:19:07;97537.88;;;25.34;100.00
31225;BME280;17847;31.524;74.366;2023-07-29T06:21:38;97529.75;;;25.43;100.00
31225;BME280;17847;31.524;74.366;2023-07-29T06:24:08;97516.84;;;25.31;100.00
31225;BME280;17847;31.524;74.366;2023-07-29T06:26:38;97506.78;;;25.40;100.00
31225;BME280;17847;31.524;74.366;2023-07-29T06:29:07;97501.03;;;25.42;100.00
31225;BME280;17847;31.524;74.366;2023-07-29T06:31:36;97484.31;;;25.48;100.00
31225;BME280;17847;31.524;74.366;2023-07-29T06:34:06;97477.44;;;25.51;100.00
31225;BME280;17847;31.524;74.366;2023-07-29T06:36:35;97477.28;;;25.39;100.00
31225;BME280;17847;31.524;74.366;2023-07-29T06:39:06;97476.63;;;25.42;100.00
31225;BME280;17847;31.524;74.366;2023-07-29T06:41:36;97489.91;;;25.69;100.00
31225;BME280;17847;31.524;74.366;2023-07-29T06:44:06;97513.06;;;25.75;100.00
31225;BME280;17847;31.524;74.366;2023-07-29T06:46:35;97529.50;;;25.87;100.00
31225;BME280;17847;31.524;74.366;2023-07-29T06:49:05;97533.81;;;25.88;100.00
31225;BME280;17847;31.524;74.366;2023-07-29T06:51:35;97534.75;;;25.92;100.00
31225;BME280;17847;31.524;74.366;2023-07-29T06:54:04;97528.81;;;25.99;100.00
31225;BME280;17847;31.524;74.366;2023-07-29T06:56:33;97524.84;;;25.97;100.00
31225;BME280;17847;31.524;74.366;2023-07-29T06:59:03;97537.59;;;26.05;100.00
31225;BME280;17847;31.524;74.366;2023-07-29T07:01:33;97545.25;;;26.11;100.00
31225;BME280;17847;31.524;74.366;2023-07-29T07:04:03;97550.06;;;26.14;100.00
31225;BME280;17847;31.524;74.366;2023-07-29T07:06:33;97548.13;;;26.15;100.00
31225;BME280;17847;31.524;74.366;2023-07-29T07:09:03;97556.75;;;26.17;100.00
31225;BME280;17847;31.524;74.366;2023-07-29T07:11:32;97553.38;;;26.11;100.00
31225;BME280;17847;31.524;74.366;2023-07-29T07:14:02;97549.09;;;26.10;100.00
31225;BME280;17847;31.524;74.366;2023-07-29T07:16:31;97535.53;;;26.02;100.00
31225;BME280;17847;31.524;74.366;2023-07-29T07:19:01;97532.81;;;26.19;100.00
31225;BME280;17847;31.524;74.366;2023-07-29T07:21:30;97523.88;;;26.18;100.00
31225;BME280;17847;31.524;74.366;2023-07-29T07:24:01;97519.25;;;26.27;100.00
31225;BME280;17847;31.524;74.366;2023-07-29T07:26:30;97515.06;;;26.30;100.00
31225;BME280;17847;31.524;74.366;2023-07-29T07:29:00;97499.75;;;26.17;100.00
31225;BME280;17847;31.524;74.366;2023-07-29T07:31:33;97499.44;;;26.27;100.00
31225;BME280;17847;31.524;74.366;2023-07-29T07:34:04;97496.72;;;26.27;100.00
31225;BME280;17847;31.524;74.366;2023-07-29T07:36:34;97494.28;;;26.43;100.00
31225;BME280;17847;31.524;74.366;2023-07-29T07:39:05;97489.63;;;26.43;100.00
31225;BME280;17847;31.524;74.366;2023-07-29T07:41:35;97477.97;;;26.43;100.00
31225;BME280;17847;31.524;74.366;2023-07-29T07:44:06;97479.59;;;26.44;100.00
31225;BME280;17847;31.524;74.366;2023-07-29T07:46:36;97473.84;;;26.45;100.00
31225;BME280;17847;31.524;74.366;2023-07-29T07:49:07;97473.31;;;26.52;100.00
31225;BME280;17847;31.524;74.366;2023-07-29T07:51:36;97470.16;;;26.50;100.00
31225;BME280;17847;31.524;74.366;2023-07-29T07:54:06;97473.75;;;26.62;100.00
31225;BME280;17847;31.524;74.366;2023-07-29T07:56:35;97475.63;;;26.70;100.00
31225;BME280;17847;31.524;74.366;2023-07-29T07:59:05;97474.03;;;26.69;100.00
31225;BME280;17847;31.524;74.366;2023-07-29T08:01:36;97479.94;;;26.71;100.00
31225;BME280;17847;31.524;74.366;2023-07-29T08:04:06;97485.03;;;26.81;100.00
31225;BME280;17847;31.524;74.366;2023-07-29T08:06:36;97478.25;;;26.96;100.00
31225;BME280;17847;31.524;74.366;2023-07-29T08:09:06;97484.97;;;26.99;100.00
31225;BME280;17847;31.524;74.366;2023-07-29T08:11:36;97483.19;;;27.03;100.00
31225;BME280;17847;31.524;74.366;2023-07-29T08:14:05;97485.09;;;27.02;100.00
31225;BME280;17847;31.524;74.366;2023-07-29T08:16:35;97470.53;;;27.07;100.00
31225;BME280;17847;31.524;74.366;2023-07-29T08:19:05;97467.94;;;27.10;100.00
31225;BME280;17847;31.524;74.366;2023-07-29T08:21:36;97470.59;;;27.19;100.00
31225;BME280;17847;31.524;74.366;2023-07-29T08:24:05;97484.25;;;27.31;100.00
31225;BME280;17847;31.524;74.366;2023-07-29T08:26:36;97490.19;;;27.33;100.00
31225;BME280;17847;31.524;74.366;2023-07-29T08:29:06;97481.34;;;27.36;100.00
31225;BME280;17847;31.524;74.366;2023-07-29T08:31:36;97469.47;;;27.41;100.00
31225;BME280;17847;31.524;74.366;2023-07-29T08:34:05;97471.69;;;27.47;100.00
31225;BME280;17847;31.524;74.366;2023-07-29T08:36:34;97473.47;;;27.43;100.00
31225;BME280;17847;31.524;74.366;2023-07-29T08:39:05;97483.69;;;27.46;100.00
31225;BME280;17847;31.524;74.366;2023-07-29T08:44:43;97480.84;;;27.43;100.00
31225;BME280;17847;31.524;74.366;2023-07-29T08:47:13;97483.56;;;27.43;100.00
31225;BME280;17847;31.524;74.366;2023-07-29T08:49:45;97490.06;;;27.50;100.00
31225;BME280;17847;31.524;74.366;2023-07-29T08:52:16;97489.88;;;27.55;100.00
31225;BME280;17847;31.524;74.366;2023-07-29T08:54:46;97492.97;;;27.45;100.00
31225;BME280;17847;31.524;74.366;2023-07-29T08:57:16;97503.22;;;27.40;100.00
31225;BME280;17847;31.524;74.366;2023-07-29T08:59:46;97484.19;;;27.40;100.00
31225;BME280;17847;31.524;74.366;2023-07-29T09:02:16;97487.25;;;27.38;100.00
31225;BME280;17847;31.524;74.366;2023-07-29T09:04:45;97479.75;;;27.35;100.00
31225;BME280;17847;31.524;74.366;2023-07-29T09:07:15;97477.63;;;27.41;100.00
31225;BME280;17847;31.524;74.366;2023-07-29T09:09:48;97473.75;;;27.50;100.00
31225;BME280;17847;31.524;74.366;2023-07-29T09:12:18;97471.16;;;27.54;100.00
31225;BME280;17847;31.524;74.366;2023-07-29T09:14:52;97473.00;;;27.41;100.00
31225;BME280;17847;31.524;74.366;2023-07-29T09:17:22;97465.75;;;27.45;100.00
31225;BME280;17847;31.524;74.366;2023-07-29T09:19:52;97475.00;;;27.53;100.00
31225;BME280;17847;31.524;74.366;2023-07-29T09:22:23;97467.56;;;27.62;100.00
31225;BME280;17847;31.524;74.366;2023-07-29T09:24:57;97468.72;;;27.61;100.00
31225;BME280;17847;31.524;74.366;2023-07-29T09:27:28;97485.47;;;27.42;100.00
31225;BME280;17847;31.524;74.366;2023-07-29T09:30:00;97481.91;;;27.50;100.00
31225;BME280;17847;31.524;74.366;2023-07-29T09:32:31;97494.44;;;27.63;100.00
31225;BME280;17847;31.524;74.366;2023-07-29T09:35:01;97478.84;;;27.73;100.00
31225;BME280;17847;31.524;74.366;2023-07-29T09:37:32;97474.41;;;27.68;100.00
31225;BME280;17847;31.524;74.366;2023-07-29T09:40:02;97477.06;;;27.77;100.00
31225;BME280;17847;31.524;74.366;2023-07-29T09:42:32;97479.25;;;27.83;100.00
31225;BME280;17847;31.524;74.366;2023-07-29T09:45:02;97468.94;;;27.89;100.00
31225;BME280;17847;31.524;74.366;2023-07-29T09:47:32;97468.00;;;27.85;100.00
31225;BME280;17847;31.524;74.366;2023-07-29T09:50:01;97461.56;;;27.89;100.00
31225;BME280;17847;31.524;74.366;2023-07-29T09:52:30;97462.94;;;27.95;100.00
31225;BME280;17847;31.524;74.366;2023-07-29T09:55:00;97453.50;;;27.93;100.00
31225;BME280;17847;31.524;74.366;2023-07-29T09:57:30;97447.06;;;27.97;100.00
31225;BME280;17847;31.524;74.366;2023-07-29T10:00:00;97448.13;;;28.05;100.00
31225;BME280;17847;31.524;74.366;2023-07-29T10:02:37;97444.72;;;28.08;100.00
31225;BME280;17847;31.524;74.366;2023-07-29T10:05:08;97444.41;;;28.09;100.00
31225;BME280;17847;31.524;74.366;2023-07-29T10:07:39;97445.34;;;28.13;100.00
31225;BME280;17847;31.524;74.366;2023-07-29T10:10:09;97441.81;;;28.13;100.00
31225;BME280;17847;31.524;74.366;2023-07-29T10:12:41;97440.88;;;28.09;100.00
31225;BME280;17847;31.524;74.366;2023-07-29T10:15:11;97450.50;;;28.06;100.00
31225;BME280;17847;31.524;74.366;2023-07-29T10:17:41;97449.34;;;27.95;100.00
31225;BME280;17847;31.524;74.366;2023-07-29T10:20:11;97433.81;;;27.96;100.00
31225;BME280;17847;31.524;74.366;2023-07-29T10:22:43;97451.25;;;27.95;100.00
31225;BME280;17847;31.524;74.366;2023-07-29T10:27:52;97445.34;;;27.93;100.00
31225;BME280;17847;31.524;74.366;2023-07-29T10:30:24;97449.22;;;27.92;100.00
31225;BME280;17847;31.524;74.366;2023-07-29T10:32:55;97444.59;;;27.72;100.00
31225;BME280;17847;31.524;74.366;2023-07-29T10:35:27;97438.34;;;27.71;100.00
31225;BME280;17847;31.524;74.366;2023-07-29T10:37:57;97447.91;;;27.77;100.00
31225;BME280;17847;31.524;74.366;2023-07-29T10:40:27;97454.28;;;27.81;100.00
31225;BME280;17847;31.524;74.366;2023-07-29T10:43:12;97447.59;;;27.79;100.00
31225;BME280;17847;31.524;74.366;2023-07-29T10:45:43;97451.69;;;27.85;100.00
31225;BME280;17847;31.524;74.366;2023-07-29T10:54:12;97451.69;;;27.85;100.00
31225;BME280;17847;31.524;74.366;2023-07-29T10:56:49;97451.34;;;27.86;100.00
31225;BME280;17847;31.524;74.366;2023-07-29T11:02:01;97442.97;;;27.91;100.00
31225;BME280;17847;31.524;74.366;2023-07-29T11:04:32;97442.56;;;28.01;100.00
31225;BME280;17847;31.524;74.366;2023-07-29T11:15:25;97443.34;;;28.02;100.00
31225;BME280;17847;31.524;74.366;2023-07-29T11:17:57;97444.53;;;28.13;100.00
31225;BME280;17847;31.524;74.366;2023-07-29T11:20:28;97440.69;;;28.14;100.00
31225;BME280;17847;31.524;74.366;2023-07-29T11:22:59;97448.50;;;28.16;100.00
31225;BME280;17847;31.524;74.366;2023-07-29T11:25:30;97439.97;;;28.05;100.00
31225;BME280;17847;31.524;74.366;2023-07-29T11:28:02;97445.06;;;28.06;100.00
31225;BME280;17847;31.524;74.366;2023-07-29T11:30:34;97451.75;;;28.09;100.00
31225;BME280;17847;31.524;74.366;2023-07-29T11:33:08;97448.38;;;28.12;100.00
31225;BME280;17847;31.524;74.366;2023-07-29T11:35:38;97444.59;;;28.04;100.00
31225;BME280;17847;31.524;74.366;2023-07-29T11:38:08;97440.41;;;28.07;100.00
31225;BME280;17847;31.524;74.366;2023-07-29T11:40:37;97438.47;;;28.07;100.00
31225;BME280;17847;31.524;74.366;2023-07-29T11:43:07;97443.56;;;27.97;100.00
31225;BME280;17847;31.524;74.366;2023-07-29T11:45:40;97437.34;;;27.96;100.00
31225;BME280;17847;31.524;74.366;2023-07-29T11:48:32;97438.78;;;27.94;100.00
31225;BME280;17847;31.524;74.366;2023-07-29T11:51:03;97436.25;;;27.89;100.00
31225;BME280;17847;31.524;74.366;2023-07-29T11:53:32;97424.38;;;27.93;100.00
31225;BME280;17847;31.524;74.366;2023-07-29T11:56:03;97437.94;;;27.81;100.00
31225;BME280;17847;31.524;74.366;2023-07-29T11:58:33;97439.97;;;27.72;100.00
31225;BME280;17847;31.524;74.366;2023-07-29T12:01:03;97436.13;;;27.73;100.00
31225;BME280;17847;31.524;74.366;2023-07-29T12:03:33;97424.56;;;27.76;100.00
31225;BME280;17847;31.524;74.366;2023-07-29T12:06:03;97421.59;;;27.69;100.00
31225;BME280;17847;31.524;74.366;2023-07-29T12:08:33;97422.38;;;27.69;100.00
31225;BME280;17847;31.524;74.366;2023-07-29T12:11:02;97433.28;;;27.69;100.00
31225;BME280;17847;31.524;74.366;2023-07-29T12:13:33;97430.19;;;27.71;100.00
31225;BME280;17847;31.524;74.366;2023-07-29T12:16:03;97431.47;;;27.74;100.00
31225;BME280;17847;31.524;74.366;2023-07-29T12:18:36;97425.44;;;27.68;100.00
31225;BME280;17847;31.524;74.366;2023-07-29T12:21:05;97418.75;;;27.65;100.00
31225;BME280;17847;31.524;74.366;2023-07-29T12:23:36;97419.19;;;27.67;100.00
31225;BME280;17847;31.524;74.366;2023-07-29T12:26:05;97415.22;;;27.65;100.00
31225;BME280;17847;31.524;74.366;2023-07-29T12:28:35;97415.09;;;27.61;100.00
31225;BME280;17847;31.524;74.366;2023-07-29T12:31:07;97408.66;;;27.66;100.00
31225;BME280;17847;31.524;74.366;2023-07-29T12:33:38;97408.44;;;27.71;100.00
31225;BME280;17847;31.524;74.366;2023-07-29T12:36:09;97401.53;;;27.74;100.00
31225;BME280;17847;31.524;74.366;2023-07-29T12:38:43;97397.22;;;27.73;100.00
31225;BME280;17847;31.524;74.366;2023-07-29T12:41:13;97409.50;;;27.58;100.00
31225;BME280;17847;31.524;74.366;2023-07-29T12:43:43;97405.94;;;27.66;100.00
31225;BME280;17847;31.524;74.366;2023-07-29T12:46:12;97406.50;;;27.72;100.00
31225;BME280;17847;31.524;74.366;2023-07-29T12:48:42;97421.03;;;27.76;100.00
31225;BME280;17847;31.524;74.366;2023-07-29T12:51:11;97422.94;;;27.75;100.00
31225;BME280;17847;31.524;74.366;2023-07-29T12:53:40;97420.91;;;27.72;100.00
31225;BME280;17847;31.524;74.366;2023-07-29T12:56:10;97422.19;;;27.75;100.00
31225;BME280;17847;31.524;74.366;2023-07-29T12:58:39;97422.03;;;27.71;100.00
31225;BME280;17847;31.524;74.366;2023-07-29T13:01:09;97425.22;;;27.73;100.00
31225;BME280;17847;31.524;74.366;2023-07-29T13:03:42;97423.50;;;27.68;100.00
31225;BME280;17847;31.524;74.366;2023-07-29T13:06:12;97419.06;;;27.64;100.00
31225;BME280;17847;31.524;74.366;2023-07-29T13:08:41;97417.47;;;27.42;100.00
31225;BME280;17847;31.524;74.366;2023-07-29T13:11:11;97416.69;;;27.42;100.00
31225;BME280;17847;31.524;74.366;2023-07-29T13:13:41;97422.41;;;27.49;100.00
31225;BME280;17847;31.524;74.366;2023-07-29T13:16:11;97425.41;;;27.56;100.00
31225;BME280;17847;31.524;74.366;2023-07-29T13:18:43;97420.88;;;27.39;100.00
31225;BME280;17847;31.524;74.366;2023-07-29T13:21:13;97423.53;;;27.48;100.00
31225;BME280;17847;31.524;74.366;2023-07-29T13:23:43;97434.00;;;27.58;100.00
31225;BME280;17847;31.524;74.366;2023-07-29T13:26:12;97431.75;;;27.60;100.00
31225;BME280;17847;31.524;74.366;2023-07-29T13:28:41;97429.56;;;27.53;100.00
31225;BME280;17847;31.524;74.366;2023-07-29T13:31:12;97431.63;;;27.56;100.00